sensor_id;sensor_type;location;lat;lon;timestamp;pressure;altitude;pressure_sealevel;temperature;humidity
63088;BME280;49173;43.164;27.786;2022-08-01T00:00:00;99962.66;;;22.47;78.52
63088;BME280;49173;43.164;27.786;2022-08-01T00:02:28;99966.59;;;22.45;79.19
63088;BME280;49173;43.164;27.786;2022-08-01T00:04:57;99961.78;;;22.39;79.08
63088;BME280;49173;43.164;27.786;2022-08-01T00:07:23;99963.69;;;22.38;79.40
63088;BME280;49173;43.164;27.786;2022-08-01T00:09:49;99955.16;;;22.41;79.49
63088;BME280;49173;43.164;27.786;2022-08-01T00:12:17;99950.69;;;22.40;79.14
63088;BME280;49173;43.164;27.786;2022-08-01T00:14:43;99950.69;;;22.40;78.92
63088;BME280;49173;43.164;27.786;2022-08-01T00:17:10;99943.69;;;22.38;78.28
63088;BME280;49173;43.164;27.786;2022-08-01T00:19:36;99943.34;;;22.33;78.09
63088;BME280;49173;43.164;27.786;2022-08-01T00:22:03;99944.19;;;22.33;78.78
63088;BME280;49173;43.164;27.786;2022-08-01T00:24:33;99947.09;;;22.32;79.68
63088;BME280;49173;43.164;27.786;2022-08-01T00:26:59;99937.88;;;22.33;79.54
63088;BME280;49173;43.164;27.786;2022-08-01T00:29:25;99936.84;;;22.34;79.71
63088;BME280;49173;43.164;27.786;2022-08-01T00:31:52;99935.97;;;22.33;79.90
63088;BME280;49173;43.164;27.786;2022-08-01T00:34:18;99937.19;;;22.31;79.48
63088;BME280;49173;43.164;27.786;2022-08-01T00:36:44;99929.66;;;22.25;79.64
63088;BME280;49173;43.164;27.786;2022-08-01T00:39:12;99931.91;;;22.21;79.53
63088;BME280;49173;43.164;27.786;2022-08-01T00:41:39;99936.34;;;22.22;79.27
63088;BME280;49173;43.164;27.786;2022-08-01T00:44:05;99931.53;;;22.24;79.44
63088;BME280;49173;43.164;27.786;2022-08-01T00:46:33;99933.78;;;22.20;78.38
63088;BME280;49173;43.164;27.786;2022-08-01T00:48:59;99937.69;;;22.18;78.13
63088;BME280;49173;43.164;27.786;2022-08-01T00:51:27;99935.50;;;22.13;78.11
63088;BME280;49173;43.164;27.786;2022-08-01T00:53:53;99936.84;;;22.09;78.14
63088;BME280;49173;43.164;27.786;2022-08-01T00:56:23;99941.44;;;22.09;78.29
63088;BME280;49173;43.164;27.786;2022-08-01T00:58:50;99939.72;;;22.08;78.02
63088;BME280;49173;43.164;27.786;2022-08-01T01:01:19;99935.59;;;22.04;77.82
63088;BME280;49173;43.164;27.786;2022-08-01T01:03:49;99925.69;;;22.03;77.99
63088;BME280;49173;43.164;27.786;2022-08-01T01:11:44;99924.16;;;22.00;77.48
63088;BME280;49173;43.164;27.786;2022-08-01T01:14:13;99929.25;;;21.95;77.71
63088;BME280;49173;43.164;27.786;2022-08-01T01:16:42;99927.19;;;21.89;77.70
63088;BME280;49173;43.164;27.786;2022-08-01T01:19:08;99918.31;;;21.87;77.49
63088;BME280;49173;43.164;27.786;2022-08-01T01:29:35;99926.47;;;21.71;75.78
63088;BME280;49173;43.164;27.786;2022-08-01T01:34:35;99924.75;;;21.70;74.89
63088;BME280;49173;43.164;27.786;2022-08-01T01:37:04;99918.78;;;21.66;74.54
63088;BME280;49173;43.164;27.786;2022-08-01T01:39:32;99923.72;;;21.62;74.46
63088;BME280;49173;43.164;27.786;2022-08-01T01:41:58;99928.66;;;21.59;74.45
63088;BME280;49173;43.164;27.786;2022-08-01T01:44:25;99924.38;;;21.56;74.45
63088;BME280;49173;43.164;27.786;2022-08-01T01:46:52;99928.66;;;21.51;73.85
63088;BME280;49173;43.164;27.786;2022-08-01T01:49:23;99925.72;;;21.44;74.07
63088;BME280;49173;43.164;27.786;2022-08-01T01:51:50;99928.06;;;21.39;74.44
63088;BME280;49173;43.164;27.786;2022-08-01T01:54:17;99935.25;;;21.40;73.64
63088;BME280;49173;43.164;27.786;2022-08-01T01:56:45;99928.41;;;21.36;74.37
63088;BME280;49173;43.164;27.786;2022-08-01T01:59:21;99934.19;;;21.33;73.74
63088;BME280;49173;43.164;27.786;2022-08-01T02:01:51;99928.72;;;21.33;72.79
63088;BME280;49173;43.164;27.786;2022-08-01T02:04:17;99932.47;;;21.32;73.07
63088;BME280;49173;43.164;27.786;2022-08-01T02:06:45;99927.63;;;21.26;73.02
63088;BME280;49173;43.164;27.786;2022-08-01T02:09:16;99924.53;;;21.21;72.84
63088;BME280;49173;43.164;27.786;2022-08-01T02:11:44;99931.38;;;21.17;73.24
63088;BME280;49173;43.164;27.786;2022-08-01T02:14:10;99935.13;;;21.16;72.63
63088;BME280;49173;43.164;27.786;2022-08-01T02:16:39;99928.09;;;21.13;72.32
63088;BME280;49173;43.164;27.786;2022-08-01T02:19:06;99929.28;;;21.10;72.40
63088;BME280;49173;43.164;27.786;2022-08-01T02:22:06;99929.63;;;21.07;72.18
63088;BME280;49173;43.164;27.786;2022-08-01T02:24:35;99926.88;;;21.07;72.52
63088;BME280;49173;43.164;27.786;2022-08-01T02:27:10;99930.25;;;21.01;72.68
63088;BME280;49173;43.164;27.786;2022-08-01T02:29:39;99927.16;;;20.96;72.45
63088;BME280;49173;43.164;27.786;2022-08-01T02:32:07;99921.69;;;20.96;72.75
63088;BME280;49173;43.164;27.786;2022-08-01T02:34:34;99922.72;;;20.95;72.22
63088;BME280;49173;43.164;27.786;2022-08-01T02:37:01;99931.38;;;20.91;71.55
63088;BME280;49173;43.164;27.786;2022-08-01T02:39:54;99918.25;;;20.86;71.45
63088;BME280;49173;43.164;27.786;2022-08-01T02:42:23;99920.97;;;20.86;71.03
63088;BME280;49173;43.164;27.786;2022-08-01T02:44:52;99919.22;;;20.85;71.88
63088;BME280;49173;43.164;27.786;2022-08-01T02:47:20;99921.44;;;20.81;71.55
63088;BME280;49173;43.164;27.786;2022-08-01T02:49:48;99926.34;;;20.78;72.07
63088;BME280;49173;43.164;27.786;2022-08-01T02:52:16;99929.41;;;20.75;71.81
63088;BME280;49173;43.164;27.786;2022-08-01T02:54:44;99925.84;;;20.74;71.37
63088;BME280;49173;43.164;27.786;2022-08-01T02:57:11;99926.00;;;20.73;71.25
63088;BME280;49173;43.164;27.786;2022-08-01T02:59:38;99933.63;;;20.69;71.55
63088;BME280;49173;43.164;27.786;2022-08-01T03:02:05;99925.22;;;20.63;71.09
63088;BME280;49173;43.164;27.786;2022-08-01T03:04:59;99931.22;;;20.66;70.83
63088;BME280;49173;43.164;27.786;2022-08-01T03:07:28;99931.06;;;20.68;70.32
63088;BME280;49173;43.164;27.786;2022-08-01T03:09:55;99934.66;;;20.68;71.18
63088;BME280;49173;43.164;27.786;2022-08-01T03:12:24;99940.56;;;20.64;70.57
63088;BME280;49173;43.164;27.786;2022-08-01T03:14:53;99937.47;;;20.59;70.91
63088;BME280;49173;43.164;27.786;2022-08-01T03:17:21;99948.84;;;20.54;71.65
63088;BME280;49173;43.164;27.786;2022-08-01T03:19:48;99947.63;;;20.48;71.32
63088;BME280;49173;43.164;27.786;2022-08-01T03:22:15;99950.34;;;20.48;72.01
63088;BME280;49173;43.164;27.786;2022-08-01T03:24:41;99950.50;;;20.47;71.65
63088;BME280;49173;43.164;27.786;2022-08-01T03:27:08;99948.97;;;20.44;71.65
63088;BME280;49173;43.164;27.786;2022-08-01T03:29:37;99949.38;;;20.40;72.21
63088;BME280;49173;43.164;27.786;2022-08-01T03:32:04;99951.78;;;20.43;70.21
63088;BME280;49173;43.164;27.786;2022-08-01T03:34:30;99946.25;;;20.44;71.65
63088;BME280;49173;43.164;27.786;2022-08-01T03:39:30;99956.66;;;20.49;70.54
63088;BME280;49173;43.164;27.786;2022-08-01T03:41:58;99959.59;;;20.55;71.72
63088;BME280;49173;43.164;27.786;2022-08-01T03:44:26;99954.84;;;20.57;69.07
63088;BME280;49173;43.164;27.786;2022-08-01T03:47:08;99945.34;;;20.62;70.32
63088;BME280;49173;43.164;27.786;2022-08-01T03:49:40;99934.31;;;20.71;68.19
63088;BME280;49173;43.164;27.786;2022-08-01T03:52:07;99949.75;;;20.80;65.94
63088;BME280;49173;43.164;27.786;2022-08-01T03:55:00;99948.44;;;20.93;63.77
63088;BME280;49173;43.164;27.786;2022-08-01T03:57:28;99946.78;;;21.00;62.77
63088;BME280;49173;43.164;27.786;2022-08-01T03:59:59;99948.84;;;21.06;63.44
63088;BME280;49173;43.164;27.786;2022-08-01T04:02:29;99945.66;;;21.10;63.10
63088;BME280;49173;43.164;27.786;2022-08-01T04:04:55;99945.53;;;21.20;64.54
63088;BME280;49173;43.164;27.786;2022-08-01T04:07:31;99944.19;;;21.24;64.70
63088;BME280;49173;43.164;27.786;2022-08-01T04:09:57;99950.91;;;21.30;65.07
63088;BME280;49173;43.164;27.786;2022-08-01T04:12:24;99951.25;;;21.35;64.46
63088;BME280;49173;43.164;27.786;2022-08-01T04:14:50;99956.78;;;21.43;63.42
63088;BME280;49173;43.164;27.786;2022-08-01T04:17:16;99946.91;;;21.50;62.84
63088;BME280;49173;43.164;27.786;2022-08-01T04:19:42;99938.22;;;21.63;62.01
63088;BME280;49173;43.164;27.786;2022-08-01T04:22:09;99937.94;;;21.74;62.10
63088;BME280;49173;43.164;27.786;2022-08-01T04:25:01;99943.09;;;21.85;61.03
63088;BME280;49173;43.164;27.786;2022-08-01T04:27:29;99942.25;;;21.93;61.50
63088;BME280;49173;43.164;27.786;2022-08-01T04:29:58;99935.75;;;22.02;61.75
63088;BME280;49173;43.164;27.786;2022-08-01T04:32:27;99943.31;;;22.08;62.30
63088;BME280;49173;43.164;27.786;2022-08-01T04:34:56;99929.50;;;22.18;61.84
63088;BME280;49173;43.164;27.786;2022-08-01T04:37:25;99939.25;;;22.29;61.22
63088;BME280;49173;43.164;27.786;2022-08-01T04:39:52;99931.91;;;22.37;60.15
63088;BME280;49173;43.164;27.786;2022-08-01T04:42:18;99931.88;;;22.45;60.66
63088;BME280;49173;43.164;27.786;2022-08-01T04:44:44;99939.59;;;22.50;61.58
63088;BME280;49173;43.164;27.786;2022-08-01T04:47:10;99946.56;;;22.61;61.65
63088;BME280;49173;43.164;27.786;2022-08-01T04:50:10;99945.03;;;22.66;61.76
63088;BME280;49173;43.164;27.786;2022-08-01T04:52:38;99943.31;;;22.73;61.94
63088;BME280;49173;43.164;27.786;2022-08-01T04:55:05;99940.06;;;22.78;61.49
63088;BME280;49173;43.164;27.786;2022-08-01T04:57:36;99950.53;;;22.91;59.76
63088;BME280;49173;43.164;27.786;2022-08-01T05:00:04;99948.44;;;23.01;60.67
63088;BME280;49173;43.164;27.786;2022-08-01T05:02:32;99943.59;;;23.11;60.11
63088;BME280;49173;43.164;27.786;2022-08-01T05:04:59;99942.91;;;23.17;60.62
63088;BME280;49173;43.164;27.786;2022-08-01T05:07:25;99941.69;;;23.28;60.89
63088;BME280;49173;43.164;27.786;2022-08-01T05:09:51;99949.69;;;23.38;59.67
63088;BME280;49173;43.164;27.786;2022-08-01T05:12:17;99949.13;;;23.50;58.79
63088;BME280;49173;43.164;27.786;2022-08-01T05:14:44;99945.00;;;23.63;57.68
63088;BME280;49173;43.164;27.786;2022-08-01T05:17:11;99939.47;;;23.71;57.53
63088;BME280;49173;43.164;27.786;2022-08-01T05:20:04;99943.41;;;23.76;57.97
63088;BME280;49173;43.164;27.786;2022-08-01T05:22:32;99929.97;;;23.81;53.64
63088;BME280;49173;43.164;27.786;2022-08-01T05:24:59;99933.75;;;23.80;53.21
63088;BME280;49173;43.164;27.786;2022-08-01T05:27:27;99937.78;;;23.70;53.17
63088;BME280;49173;43.164;27.786;2022-08-01T05:29:53;99934.91;;;23.63;52.70
63088;BME280;49173;43.164;27.786;2022-08-01T05:32:19;99932.84;;;23.57;52.74
63088;BME280;49173;43.164;27.786;2022-08-01T05:34:45;99936.09;;;23.52;53.88
63088;BME280;49173;43.164;27.786;2022-08-01T05:37:11;99929.78;;;23.52;54.84
63088;BME280;49173;43.164;27.786;2022-08-01T05:39:38;99934.78;;;23.48;52.84
63088;BME280;49173;43.164;27.786;2022-08-01T05:42:04;99938.69;;;23.54;55.50
63088;BME280;49173;43.164;27.786;2022-08-01T05:44:31;99939.16;;;23.57;54.24
63088;BME280;49173;43.164;27.786;2022-08-01T05:47:01;99943.13;;;23.63;54.75
63088;BME280;49173;43.164;27.786;2022-08-01T05:49:28;99931.91;;;23.73;54.00
63088;BME280;49173;43.164;27.786;2022-08-01T05:51:54;99932.38;;;23.84;53.86
63088;BME280;49173;43.164;27.786;2022-08-01T05:54:20;99926.84;;;23.93;51.74
63088;BME280;49173;43.164;27.786;2022-08-01T05:56:46;99918.56;;;24.01;52.71
63088;BME280;49173;43.164;27.786;2022-08-01T05:59:16;99920.97;;;24.04;51.45
63088;BME280;49173;43.164;27.786;2022-08-01T06:01:42;99912.34;;;24.07;50.38
63088;BME280;49173;43.164;27.786;2022-08-01T06:04:09;99919.84;;;24.13;50.90
63088;BME280;49173;43.164;27.786;2022-08-01T06:06:35;99923.06;;;24.17;50.47
63088;BME280;49173;43.164;27.786;2022-08-01T06:09:01;99925.28;;;24.21;50.47
63088;BME280;49173;43.164;27.786;2022-08-01T06:11:28;99912.91;;;24.25;49.31
63088;BME280;49173;43.164;27.786;2022-08-01T06:13:56;99903.91;;;24.31;49.82
63088;BME280;49173;43.164;27.786;2022-08-01T06:16:22;99911.63;;;24.36;48.63
63088;BME280;49173;43.164;27.786;2022-08-01T06:18:52;99914.03;;;24.39;48.36
63088;BME280;49173;43.164;27.786;2022-08-01T06:21:18;99907.31;;;24.42;49.03
63088;BME280;49173;43.164;27.786;2022-08-01T06:23:44;99898.69;;;24.45;47.90
63088;BME280;49173;43.164;27.786;2022-08-01T06:26:10;99901.56;;;24.51;48.46
63088;BME280;49173;43.164;27.786;2022-08-01T06:28:37;99898.06;;;24.57;47.00
63088;BME280;49173;43.164;27.786;2022-08-01T06:31:04;99903.00;;;24.62;47.56
63088;BME280;49173;43.164;27.786;2022-08-01T06:33:31;99903.97;;;24.69;47.57
63088;BME280;49173;43.164;27.786;2022-08-01T06:36:03;99900.09;;;24.78;47.58
63088;BME280;49173;43.164;27.786;2022-08-01T06:38:29;99907.19;;;24.87;47.28
63088;BME280;49173;43.164;27.786;2022-08-01T06:41:10;99896.16;;;24.96;46.49
63088;BME280;49173;43.164;27.786;2022-08-01T06:43:37;99891.59;;;25.03;47.56
63088;BME280;49173;43.164;27.786;2022-08-01T06:46:03;99894.75;;;25.14;46.80
63088;BME280;49173;43.164;27.786;2022-08-01T06:48:31;99894.91;;;25.28;47.17
63088;BME280;49173;43.164;27.786;2022-08-01T06:50:58;99897.75;;;25.34;45.29
63088;BME280;49173;43.164;27.786;2022-08-01T06:53:39;99890.84;;;25.38;45.60
63088;BME280;49173;43.164;27.786;2022-08-01T06:56:08;99892.16;;;25.42;44.71
63088;BME280;49173;43.164;27.786;2022-08-01T06:58:36;99887.59;;;25.50;45.17
63088;BME280;49173;43.164;27.786;2022-08-01T07:01:03;99869.47;;;25.55;45.10
63088;BME280;49173;43.164;27.786;2022-08-01T07:03:31;99876.38;;;25.66;44.78
63088;BME280;49173;43.164;27.786;2022-08-01T07:05:57;99889.84;;;25.76;45.67
63088;BME280;49173;43.164;27.786;2022-08-01T07:08:23;99874.91;;;25.85;45.02
63088;BME280;49173;43.164;27.786;2022-08-01T07:10:49;99875.47;;;25.95;44.44
63088;BME280;49173;43.164;27.786;2022-08-01T07:13:15;99872.38;;;26.05;43.88
63088;BME280;49173;43.164;27.786;2022-08-01T07:15:46;99861.66;;;26.10;43.14
63088;BME280;49173;43.164;27.786;2022-08-01T07:18:12;99856.22;;;26.16;42.57
63088;BME280;49173;43.164;27.786;2022-08-01T07:20:38;99856.72;;;26.26;43.43
63088;BME280;49173;43.164;27.786;2022-08-01T07:23:04;99856.13;;;26.31;41.70
63088;BME280;49173;43.164;27.786;2022-08-01T07:25:30;99854.66;;;26.35;43.08
63088;BME280;49173;43.164;27.786;2022-08-01T07:27:57;99857.50;;;26.42;42.00
63088;BME280;49173;43.164;27.786;2022-08-01T07:30:25;99856.50;;;26.49;42.34
63088;BME280;49173;43.164;27.786;2022-08-01T07:32:51;99859.13;;;26.58;41.95
63088;BME280;49173;43.164;27.786;2022-08-01T07:35:19;99863.59;;;26.59;41.83
63088;BME280;49173;43.164;27.786;2022-08-01T07:37:45;99867.63;;;26.63;41.59
63088;BME280;49173;43.164;27.786;2022-08-01T07:40:13;99860.47;;;26.68;41.10
63088;BME280;49173;43.164;27.786;2022-08-01T07:42:39;99861.16;;;26.77;41.65
63088;BME280;49173;43.164;27.786;2022-08-01T07:45:09;99860.13;;;26.84;42.01
63088;BME280;49173;43.164;27.786;2022-08-01T07:47:35;99869.25;;;26.85;40.19
63088;BME280;49173;43.164;27.786;2022-08-01T07:50:03;99861.03;;;26.92;40.87
63088;BME280;49173;43.164;27.786;2022-08-01T07:52:30;99861.06;;;26.98;40.65
63088;BME280;49173;43.164;27.786;2022-08-01T07:54:56;99858.56;;;27.03;40.16
63088;BME280;49173;43.164;27.786;2022-08-01T07:57:23;99861.53;;;27.02;40.18
63088;BME280;49173;43.164;27.786;2022-08-01T07:59:49;99855.63;;;27.05;40.57
63088;BME280;49173;43.164;27.786;2022-08-01T08:02:15;99869.03;;;27.08;39.20
63088;BME280;49173;43.164;27.786;2022-08-01T08:04:43;99866.06;;;27.09;40.46
63088;BME280;49173;43.164;27.786;2022-08-01T08:07:09;99862.88;;;27.13;39.94
63088;BME280;49173;43.164;27.786;2022-08-01T08:09:35;99864.19;;;27.17;40.70
63088;BME280;49173;43.164;27.786;2022-08-01T08:12:03;99868.88;;;27.23;40.97
63088;BME280;49173;43.164;27.786;2022-08-01T08:14:29;99866.16;;;27.29;40.81
63088;BME280;49173;43.164;27.786;2022-08-01T08:16:55;99865.97;;;27.37;39.94
63088;BME280;49173;43.164;27.786;2022-08-01T08:19:22;99867.03;;;27.36;38.55
63088;BME280;49173;43.164;27.786;2022-08-01T08:21:48;99867.91;;;27.44;40.31
63088;BME280;49173;43.164;27.786;2022-08-01T08:24:14;99872.59;;;27.50;39.71
63088;BME280;49173;43.164;27.786;2022-08-01T08:26:47;99862.63;;;27.55;39.75
63088;BME280;49173;43.164;27.786;2022-08-01T08:29:13;99865.63;;;27.60;40.65
63088;BME280;49173;43.164;27.786;2022-08-01T08:31:39;99868.38;;;27.60;38.93
63088;BME280;49173;43.164;27.786;2022-08-01T08:34:06;99874.97;;;27.59;38.34
63088;BME280;49173;43.164;27.786;2022-08-01T08:36:34;99869.88;;;27.56;38.02
63088;BME280;49173;43.164;27.786;2022-08-01T08:39:01;99868.38;;;27.60;39.23
63088;BME280;49173;43.164;27.786;2022-08-01T08:41:36;99872.66;;;27.63;39.37
63088;BME280;49173;43.164;27.786;2022-08-01T08:44:03;99868.22;;;27.69;39.43
63088;BME280;49173;43.164;27.786;2022-08-01T08:46:29;99872.53;;;27.78;39.37
63088;BME280;49173;43.164;27.786;2022-08-01T08:48:58;99878.91;;;27.85;38.13
63088;BME280;49173;43.164;27.786;2022-08-01T08:51:27;99875.31;;;27.91;38.69
63088;BME280;49173;43.164;27.786;2022-08-01T08:53:58;99876.38;;;27.97;39.42
63088;BME280;49173;43.164;27.786;2022-08-01T08:56:24;99872.56;;;28.04;39.16
63088;BME280;49173;43.164;27.786;2022-08-01T08:58:51;99877.25;;;28.10;39.49
63088;BME280;49173;43.164;27.786;2022-08-01T09:01:17;99875.34;;;28.17;38.57
63088;BME280;49173;43.164;27.786;2022-08-01T09:03:43;99864.97;;;28.19;38.84
63088;BME280;49173;43.164;27.786;2022-08-01T09:06:10;99863.25;;;28.25;38.67
63088;BME280;49173;43.164;27.786;2022-08-01T09:08:36;99871.97;;;28.29;39.87
63088;BME280;49173;43.164;27.786;2022-08-01T09:11:03;99874.53;;;28.37;39.60
63088;BME280;49173;43.164;27.786;2022-08-01T09:13:29;99864.56;;;28.42;39.64
63088;BME280;49173;43.164;27.786;2022-08-01T09:15:56;99861.81;;;28.42;37.74
63088;BME280;49173;43.164;27.786;2022-08-01T09:23:45;99855.22;;;28.57;38.16
63088;BME280;49173;43.164;27.786;2022-08-01T09:26:15;99857.97;;;28.63;37.95
63088;BME280;49173;43.164;27.786;2022-08-01T09:28:42;99856.91;;;28.64;38.21
63088;BME280;49173;43.164;27.786;2022-08-01T09:31:16;99858.81;;;28.70;37.36
63088;BME280;49173;43.164;27.786;2022-08-01T09:33:54;99853.50;;;28.76;36.15
63088;BME280;49173;43.164;27.786;2022-08-01T09:36:21;99853.47;;;28.82;37.08
63088;BME280;49173;43.164;27.786;2022-08-01T09:38:47;99856.03;;;28.90;37.70
63088;BME280;49173;43.164;27.786;2022-08-01T09:41:13;99846.03;;;28.96;37.36
63088;BME280;49173;43.164;27.786;2022-08-01T09:43:40;99847.50;;;29.05;37.63
63088;BME280;49173;43.164;27.786;2022-08-01T09:46:13;99843.88;;;29.11;36.47
63088;BME280;49173;43.164;27.786;2022-08-01T09:48:40;99838.94;;;29.20;37.90
63088;BME280;49173;43.164;27.786;2022-08-01T09:51:31;99826.16;;;29.32;36.87
63088;BME280;49173;43.164;27.786;2022-08-01T09:54:05;99835.03;;;29.41;36.94
63088;BME280;49173;43.164;27.786;2022-08-01T09:56:38;99840.31;;;29.49;37.37
63088;BME280;49173;43.164;27.786;2022-08-01T09:59:05;99833.94;;;29.55;35.71
63088;BME280;49173;43.164;27.786;2022-08-01T10:01:47;99846.84;;;29.68;36.88
63088;BME280;49173;43.164;27.786;2022-08-01T10:04:20;99848.06;;;29.78;36.37
63088;BME280;49173;43.164;27.786;2022-08-01T10:06:47;99851.84;;;29.84;35.34
63088;BME280;49173;43.164;27.786;2022-08-01T10:09:29;99845.28;;;29.78;35.36
63088;BME280;49173;43.164;27.786;2022-08-01T10:11:55;99847.22;;;29.78;34.72
63088;BME280;49173;43.164;27.786;2022-08-01T10:14:22;99850.56;;;29.87;35.12
63088;BME280;49173;43.164;27.786;2022-08-01T10:16:51;99853.28;;;29.93;35.20
63088;BME280;49173;43.164;27.786;2022-08-01T10:19:20;99844.50;;;30.03;35.05
63088;BME280;49173;43.164;27.786;2022-08-01T10:21:48;99851.91;;;30.09;33.90
63088;BME280;49173;43.164;27.786;2022-08-01T10:24:17;99855.56;;;30.10;34.92
63088;BME280;49173;43.164;27.786;2022-08-01T10:26:45;99855.72;;;30.08;34.18
63088;BME280;49173;43.164;27.786;2022-08-01T10:29:13;99852.34;;;30.06;34.47
63088;BME280;49173;43.164;27.786;2022-08-01T10:31:42;99850.03;;;30.03;34.66
63088;BME280;49173;43.164;27.786;2022-08-01T10:34:08;99843.84;;;30.01;34.06
63088;BME280;49173;43.164;27.786;2022-08-01T10:36:36;99837.94;;;29.97;34.03
63088;BME280;49173;43.164;27.786;2022-08-01T10:39:07;99842.78;;;30.02;34.21
63088;BME280;49173;43.164;27.786;2022-08-01T10:41:35;99845.72;;;30.14;35.46
63088;BME280;49173;43.164;27.786;2022-08-01T10:44:02;99831.59;;;30.22;34.50
63088;BME280;49173;43.164;27.786;2022-08-01T10:46:30;99836.66;;;30.31;33.28
63088;BME280;49173;43.164;27.786;2022-08-01T10:49:13;99842.56;;;30.35;33.47
63088;BME280;49173;43.164;27.786;2022-08-01T10:51:42;99841.72;;;30.34;33.68
63088;BME280;49173;43.164;27.786;2022-08-01T10:54:10;99843.88;;;30.32;32.09
63088;BME280;49173;43.164;27.786;2022-08-01T10:56:40;99845.28;;;30.42;34.76
63088;BME280;49173;43.164;27.786;2022-08-01T10:59:10;99840.28;;;30.50;32.91
63088;BME280;49173;43.164;27.786;2022-08-01T11:01:39;99849.97;;;30.66;33.35
63088;BME280;49173;43.164;27.786;2022-08-01T11:04:11;99845.25;;;30.73;33.49
63088;BME280;49173;43.164;27.786;2022-08-01T11:06:40;99847.13;;;30.73;33.63
63088;BME280;49173;43.164;27.786;2022-08-01T11:14:24;99834.78;;;30.94;33.80
63088;BME280;49173;43.164;27.786;2022-08-01T11:16:50;99825.63;;;30.93;33.19
63088;BME280;49173;43.164;27.786;2022-08-01T11:19:16;99821.38;;;30.90;33.34
63088;BME280;49173;43.164;27.786;2022-08-01T11:22:02;99823.78;;;30.87;32.95
63088;BME280;49173;43.164;27.786;2022-08-01T11:27:17;99818.91;;;31.01;33.03
63088;BME280;49173;43.164;27.786;2022-08-01T11:29:44;99826.47;;;31.12;32.44
63088;BME280;49173;43.164;27.786;2022-08-01T11:32:31;99828.16;;;31.13;32.93
63088;BME280;49173;43.164;27.786;2022-08-01T11:34:57;99821.53;;;31.14;33.28
63088;BME280;49173;43.164;27.786;2022-08-01T11:37:23;99812.59;;;31.12;31.98
63088;BME280;49173;43.164;27.786;2022-08-01T11:42:34;99820.63;;;31.38;32.88
63088;BME280;49173;43.164;27.786;2022-08-01T11:45:00;99824.44;;;31.56;32.92
63088;BME280;49173;43.164;27.786;2022-08-01T11:47:43;99815.78;;;31.64;31.93
63088;BME280;49173;43.164;27.786;2022-08-01T11:53:12;99815.56;;;31.65;31.81
63088;BME280;49173;43.164;27.786;2022-08-01T11:55:46;99815.09;;;31.68;32.65
63088;BME280;49173;43.164;27.786;2022-08-01T11:58:25;99812.22;;;31.75;31.53
63088;BME280;49173;43.164;27.786;2022-08-01T12:00:53;99815.28;;;31.85;31.67
63088;BME280;49173;43.164;27.786;2022-08-01T12:03:29;99807.94;;;31.91;31.86
63088;BME280;49173;43.164;27.786;2022-08-01T12:05:57;99815.28;;;31.85;30.73
63088;BME280;49173;43.164;27.786;2022-08-01T12:08:25;99807.22;;;31.84;31.19
63088;BME280;49173;43.164;27.786;2022-08-01T12:10:52;99812.41;;;31.80;30.78
63088;BME280;49173;43.164;27.786;2022-08-01T12:13:18;99807.75;;;31.74;30.45
63088;BME280;49173;43.164;27.786;2022-08-01T12:15:45;99805.16;;;31.79;31.08
63088;BME280;49173;43.164;27.786;2022-08-01T12:18:12;99808.06;;;31.84;32.00
63088;BME280;49173;43.164;27.786;2022-08-01T12:20:40;99810.47;;;31.92;32.89
63088;BME280;49173;43.164;27.786;2022-08-01T12:23:07;99794.34;;;32.01;31.26
63088;BME280;49173;43.164;27.786;2022-08-01T12:25:34;99794.84;;;32.10;31.13
63088;BME280;49173;43.164;27.786;2022-08-01T12:28:04;99799.78;;;32.19;32.02
63088;BME280;49173;43.164;27.786;2022-08-01T12:30:33;99795.47;;;32.23;31.70
63088;BME280;49173;43.164;27.786;2022-08-01T12:33:03;99797.16;;;32.24;31.35
63088;BME280;49173;43.164;27.786;2022-08-01T12:35:31;99782.78;;;32.28;31.75
63088;BME280;49173;43.164;27.786;2022-08-01T12:37:58;99783.78;;;32.33;30.60
63088;BME280;49173;43.164;27.786;2022-08-01T12:40:27;99785.47;;;32.46;30.99
63088;BME280;49173;43.164;27.786;2022-08-01T12:42:54;99781.13;;;32.62;32.33
63088;BME280;49173;43.164;27.786;2022-08-01T12:45:21;99785.25;;;32.71;32.41
63088;BME280;49173;43.164;27.786;2022-08-01T12:47:55;99783.28;;;32.83;31.62
63088;BME280;49173;43.164;27.786;2022-08-01T12:50:23;99776.78;;;32.89;30.67
63088;BME280;49173;43.164;27.786;2022-08-01T12:52:51;99782.56;;;32.99;30.12
63088;BME280;49173;43.164;27.786;2022-08-01T12:55:18;99773.72;;;33.02;29.74
63088;BME280;49173;43.164;27.786;2022-08-01T12:57:46;99769.72;;;32.98;28.60
63088;BME280;49173;43.164;27.786;2022-08-01T13:02:43;99765.75;;;33.06;30.13
63088;BME280;49173;43.164;27.786;2022-08-01T13:05:09;99763.19;;;33.04;29.79
63088;BME280;49173;43.164;27.786;2022-08-01T13:07:37;99757.16;;;33.08;29.10
63088;BME280;49173;43.164;27.786;2022-08-01T13:10:04;99760.06;;;33.13;29.42
63088;BME280;49173;43.164;27.786;2022-08-01T13:12:30;99759.03;;;33.19;30.22
63088;BME280;49173;43.164;27.786;2022-08-01T13:14:56;99749.22;;;33.28;30.44
63088;BME280;49173;43.164;27.786;2022-08-01T13:17:34;99756.22;;;33.30;30.72
63088;BME280;49173;43.164;27.786;2022-08-01T13:20:05;99750.50;;;33.37;29.89
63088;BME280;49173;43.164;27.786;2022-08-01T13:22:35;99746.19;;;33.41;28.37
63088;BME280;49173;43.164;27.786;2022-08-01T13:25:11;99747.34;;;33.45;27.31
63088;BME280;49173;43.164;27.786;2022-08-01T13:27:38;99752.19;;;33.50;27.99
63088;BME280;49173;43.164;27.786;2022-08-01T13:30:37;99754.81;;;33.56;28.71
63088;BME280;49173;43.164;27.786;2022-08-01T13:32:59;99749.09;;;33.63;29.09
63088;BME280;49173;43.164;27.786;2022-08-01T13:35:27;99754.16;;;33.66;28.58
63088;BME280;49173;43.164;27.786;2022-08-01T13:37:53;99757.19;;;33.65;28.55